createdAt,value
2022-12-29T00:02:11.766Z,7.07
2022-12-29T00:07:16.667Z,5.47
2022-12-29T00:12:21.531Z,6.20
2022-12-29T00:17:24.936Z,6.45
2022-12-29T00:22:47.399Z,5.55
2022-12-29T00:28:07.975Z,3.85
2022-12-29T00:33:29.978Z,4.65
2022-12-29T00:38:57.294Z,7.10
2022-12-29T00:44:07.093Z,5.55
2022-12-29T00:49:31.241Z,5.82
2022-12-29T00:54:37.867Z,6.28
2022-12-29T00:59:42.768Z,8.27
2022-12-29T01:04:46.171Z,4.10
2022-12-29T01:10:08.448Z,4.93
2022-12-29T01:15:13.299Z,8.52
2022-12-29T01:20:16.747Z,4.35
2022-12-29T01:25:21.504Z,5.43
2022-12-29T01:30:24.867Z,5.25
2022-12-29T01:35:28.568Z,3.78
2022-12-29T01:40:33.733Z,4.78
2022-12-29T01:45:37.305Z,5.68
2022-12-29T01:50:44.176Z,2.92
2022-12-29T01:55:54.258Z,3.20
2022-12-29T02:00:57.904Z,5.93
2022-12-29T02:06:06.534Z,4.20
2022-12-29T02:11:12.770Z,4.90
2022-12-29T02:16:33.820Z,3.88
2022-12-29T02:22:02.351Z,4.50
2022-12-29T02:27:31.173Z,4.70
2022-12-29T02:32:47.795Z,4.38
2022-12-29T02:38:01.524Z,3.42
2022-12-29T02:43:12.693Z,3.10
2022-12-29T02:48:22.713Z,6.65
2022-12-29T02:53:41.043Z,6.03
2022-12-29T02:58:44.593Z,4.70
2022-12-29T03:04:05.908Z,3.88
2022-12-29T03:09:22.854Z,3.00
2022-12-29T03:14:48.923Z,4.60
2022-12-29T03:19:56.910Z,3.75
2022-12-29T03:25:04.755Z,5.57
2022-12-29T03:30:10.069Z,3.83
2022-12-29T03:35:18.427Z,5.22
2022-12-29T03:40:24.976Z,4.72
2022-12-29T03:45:28.397Z,3.72
2022-12-29T03:50:33.123Z,5.10
2022-12-29T03:55:36.576Z,5.25
2022-12-29T04:00:40.029Z,4.03
2022-12-29T04:05:45.013Z,4.20
2022-12-29T04:10:49.906Z,4.43
2022-12-29T04:15:53.464Z,2.95
2022-12-29T04:21:04.993Z,4.47
2022-12-29T04:26:10.036Z,5.68
2022-12-29T04:31:13.675Z,3.40
2022-12-29T04:36:18.509Z,2.40
2022-12-29T04:41:22.241Z,4.50
2022-12-29T04:46:25.799Z,3.42
2022-12-29T04:51:30.688Z,3.45
2022-12-29T04:56:34.125Z,3.58
2022-12-29T05:01:37.944Z,4.53
2022-12-29T05:06:42.717Z,6.57
2022-12-29T05:11:46.087Z,6.07
2022-12-29T05:16:49.696Z,5.35
2022-12-29T05:21:55.447Z,5.28
2022-12-29T05:26:59.347Z,5.53
2022-12-29T05:32:02.695Z,3.70
2022-12-29T05:37:07.466Z,6.95
2022-12-29T05:42:10.860Z,8.77
2022-12-29T05:47:14.702Z,4.60
2022-12-29T05:52:19.494Z,4.45
2022-12-29T05:57:22.970Z,5.15
2022-12-29T06:02:26.505Z,5.22
2022-12-29T06:07:31.354Z,5.07
2022-12-29T06:12:34.770Z,5.20
2022-12-29T06:17:38.300Z,4.70
2022-12-29T06:22:43.121Z,4.63
2022-12-29T06:27:46.742Z,9.88
2022-12-29T06:32:50.167Z,6.40
2022-12-29T06:37:55.056Z,8.20
2022-12-29T06:42:58.689Z,6.00
2022-12-29T06:48:02.480Z,6.10
2022-12-29T06:53:07.546Z,4.72
2022-12-29T06:58:11.108Z,8.70
2022-12-29T07:03:14.549Z,6.93
2022-12-29T07:08:19.317Z,6.57
2022-12-29T07:13:22.855Z,6.28
2022-12-29T07:18:26.274Z,5.35
2022-12-29T07:23:31.166Z,5.05
2022-12-29T07:28:35.993Z,6.15
2022-12-29T07:33:39.433Z,7.97
2022-12-29T07:38:44.446Z,6.55
2022-12-29T07:43:49.676Z,6.72
2022-12-29T07:48:53.258Z,7.50
2022-12-29T07:53:58.049Z,8.30
2022-12-29T07:59:01.399Z,6.65
2022-12-29T08:04:05.057Z,8.02
2022-12-29T08:09:15.121Z,8.93
2022-12-29T08:14:21.766Z,7.10
2022-12-29T08:19:26.939Z,7.80
2022-12-29T08:24:31.909Z,7.03
2022-12-29T08:29:35.366Z,8.60
2022-12-29T08:34:38.868Z,8.43
2022-12-29T08:39:43.995Z,6.78
2022-12-29T08:44:47.373Z,6.90
2022-12-29T08:49:51.084Z,5.95
2022-12-29T08:54:55.944Z,6.93
2022-12-29T08:59:59.363Z,8.90
2022-12-29T09:05:02.791Z,7.43
2022-12-29T09:10:08.628Z,7.03
2022-12-29T09:15:13.145Z,6.90
2022-12-29T09:20:18.796Z,7.15
2022-12-29T09:25:25.340Z,6.85
2022-12-29T09:30:28.759Z,7.65
2022-12-29T09:35:32.255Z,10.32
2022-12-29T09:40:37.560Z,7.57
2022-12-29T09:45:46.672Z,5.57
2022-12-29T09:50:54.874Z,6.53
2022-12-29T09:56:02.549Z,8.27
2022-12-29T10:01:08.814Z,8.77
2022-12-29T10:06:15.974Z,7.15
2022-12-29T10:11:33.422Z,7.93
2022-12-29T10:16:44.814Z,7.95
2022-12-29T10:22:01.723Z,6.50
2022-12-29T10:27:12.305Z,9.07
2022-12-29T10:32:26.069Z,5.45
2022-12-29T10:37:36.582Z,6.22
2022-12-29T10:42:45.152Z,6.50
2022-12-29T10:47:57.349Z,6.55
2022-12-29T10:53:04.851Z,7.80
2022-12-29T10:58:14.411Z,8.70
2022-12-29T11:03:52.768Z,6.85
2022-12-29T11:08:59.742Z,6.93
2022-12-29T11:14:14.382Z,6.80
2022-12-29T11:19:25.307Z,10.10
2022-12-29T11:24:30.416Z,7.78
2022-12-29T11:29:42.261Z,7.10
2022-12-29T11:34:46.315Z,6.00
2022-12-29T11:39:54.414Z,7.03
2022-12-29T11:45:10.715Z,8.80
2022-12-29T11:50:20.968Z,8.27
2022-12-29T11:55:28.091Z,7.18
2022-12-29T12:00:36.446Z,8.73
2022-12-29T12:05:45.869Z,5.82
2022-12-29T12:10:56.645Z,9.25
2022-12-29T12:16:08.559Z,6.47
2022-12-29T12:21:20.663Z,5.20
2022-12-29T12:26:32.409Z,7.55
2022-12-29T12:31:47.514Z,10.13
2022-12-29T12:37:04.849Z,8.80
2022-12-29T12:42:20.281Z,9.70
2022-12-29T12:47:52.021Z,7.63
2022-12-29T12:53:10.970Z,7.18
2022-12-29T12:58:22.257Z,6.43
2022-12-29T13:03:40.733Z,7.18
2022-12-29T13:09:18.888Z,5.97
2022-12-29T13:14:33.431Z,6.63
2022-12-29T13:19:43.504Z,5.40
2022-12-29T13:25:00.372Z,3.97
2022-12-29T13:30:07.455Z,6.13
2022-12-29T13:35:29.278Z,5.88
2022-12-29T13:40:39.685Z,5.22
2022-12-29T13:45:45.755Z,5.13
2022-12-29T13:50:54.697Z,5.65
2022-12-29T13:56:05.635Z,8.63
2022-12-29T14:01:15.299Z,8.95
2022-12-29T14:06:26.952Z,8.50
2022-12-29T14:11:35.944Z,10.25
2022-12-29T14:16:39.491Z,12.80
2022-12-29T14:21:53.882Z,11.48
2022-12-29T14:26:57.284Z,10.27
2022-12-29T14:32:00.957Z,8.80
2022-12-29T14:37:06.320Z,9.95
2022-12-29T14:42:16.244Z,9.20
2022-12-29T14:47:24.674Z,10.43
2022-12-29T14:52:30.786Z,10.77
2022-12-29T14:57:41.340Z,9.32
2022-12-29T15:02:50.056Z,14.55
2022-12-29T15:07:55.677Z,12.20
2022-12-29T15:13:05.576Z,9.10
2022-12-29T15:18:27.230Z,12.02
2022-12-29T15:23:35.550Z,15.55
2022-12-29T15:28:41.452Z,13.43
2022-12-29T15:33:48.374Z,12.40
2022-12-29T15:38:53.985Z,13.07
2022-12-29T15:44:06.915Z,14.60
2022-12-29T15:49:11.252Z,14.88
2022-12-29T15:54:20.092Z,13.23
2022-12-29T15:59:27.505Z,16.95
2022-12-29T16:04:48.581Z,12.70
2022-12-29T16:10:01.240Z,18.23
2022-12-29T16:15:07.241Z,14.32
2022-12-29T16:20:19.853Z,17.40
2022-12-29T16:25:27.385Z,14.53
2022-12-29T16:30:34.180Z,17.15
2022-12-29T16:35:47.191Z,15.48
2022-12-29T16:40:55.975Z,14.00
2022-12-29T16:46:27.706Z,18.95
2022-12-29T16:51:33.627Z,13.32
2022-12-29T16:56:39.746Z,17.92
2022-12-29T17:01:43.967Z,20.42
2022-12-29T17:06:47.986Z,19.25
2022-12-29T17:12:03.982Z,19.98
2022-12-29T17:17:17.299Z,16.17
2022-12-29T17:22:25.169Z,16.30
2022-12-29T17:27:33.917Z,14.38
2022-12-29T17:32:37.349Z,11.50
2022-12-29T17:37:40.875Z,15.35
2022-12-29T17:42:47.591Z,13.40
2022-12-29T17:47:51.034Z,12.95
2022-12-29T17:53:00.652Z,11.48
2022-12-29T17:58:17.486Z,16.45
2022-12-29T18:03:25.972Z,14.77
2022-12-29T18:08:29.879Z,14.82
2022-12-29T18:13:45.470Z,13.52
2022-12-29T18:18:49.963Z,16.90
2022-12-29T18:23:53.631Z,17.38
2022-12-29T18:28:59.217Z,14.93
2022-12-29T18:34:08.452Z,16.23
2022-12-29T18:39:12.983Z,20.05
2022-12-29T18:44:17.713Z,17.17
2022-12-29T18:49:21.178Z,17.77
2022-12-29T18:54:29.770Z,18.13
2022-12-29T18:59:34.779Z,17.55
2022-12-29T19:04:38.370Z,13.63
2022-12-29T19:09:42.358Z,15.18
2022-12-29T19:14:47.212Z,13.75
2022-12-29T19:19:50.614Z,15.57
2022-12-29T19:24:59.801Z,17.20
2022-12-29T19:30:05.938Z,16.13
2022-12-29T19:35:10.595Z,17.45
2022-12-29T19:40:16.202Z,15.57
2022-12-29T19:45:21.503Z,14.50
2022-12-29T19:50:25.174Z,15.65
2022-12-29T19:55:28.686Z,16.02
2022-12-29T20:00:33.759Z,13.25
2022-12-29T20:05:37.517Z,16.10
2022-12-29T20:10:41.516Z,17.10
2022-12-29T20:15:46.351Z,18.17
2022-12-29T20:20:49.705Z,17.17
2022-12-29T20:25:57.258Z,14.35
2022-12-29T20:31:06.436Z,16.65
2022-12-29T20:36:12.473Z,18.02
2022-12-29T20:41:16.614Z,14.10
2022-12-29T20:46:25.193Z,13.93
2022-12-29T20:51:59.186Z,18.17
2022-12-29T21:01:59.026Z,14.83
2022-12-29T21:07:02.538Z,14.55
2022-12-29T21:12:06.995Z,17.27
2022-12-29T21:17:11.789Z,20.45
2022-12-29T21:22:15.236Z,20.02
2022-12-29T21:27:18.665Z,19.48
2022-12-29T21:32:23.671Z,18.13
2022-12-29T21:37:27.010Z,21.40
2022-12-29T21:42:30.401Z,20.23
2022-12-29T21:47:49.782Z,18.25
2022-12-29T21:52:53.191Z,18.42
2022-12-29T21:58:13.684Z,20.20
2022-12-29T22:03:36.033Z,18.33
2022-12-29T22:08:58.150Z,18.63
2022-12-29T22:14:02.245Z,18.13
2022-12-29T22:19:07.932Z,16.15
2022-12-29T22:24:11.316Z,16.05
2022-12-29T22:29:14.976Z,16.70
2022-12-29T22:34:20.764Z,18.38
2022-12-29T22:39:25.159Z,17.75
2022-12-29T22:44:28.576Z,16.48
2022-12-29T22:49:33.707Z,16.75
2022-12-29T22:54:37.301Z,16.63
2022-12-29T22:59:41.049Z,16.45
2022-12-29T23:05:03.945Z,15.02
2022-12-29T23:10:09.220Z,16.73
2022-12-29T23:15:13.589Z,14.93
2022-12-29T23:20:18.602Z,14.85
2022-12-29T23:25:22.016Z,17.15
2022-12-29T23:30:25.426Z,16.27
2022-12-29T23:35:30.420Z,14.27
2022-12-29T23:40:34.801Z,15.85
2022-12-29T23:45:39.164Z,13.10
2022-12-29T23:50:44.190Z,15.65
2022-12-29T23:55:54.759Z,16.92
